الصفحة الرئيسية
METAR-TAF:

METAR-TAF

مطار :

Resistencia, الأرجنتين

دائرة عرض: 27-27S, خط طول: 059-03W, ارتفاع: 53 متر

مراقبة الطقس الحالي

تاريخ ووقت الإصدار 1ساعة و 4 دقيقة قبل الساعة 05:00UTC
ريح 2 عقدة من الغرب/الشمال الغربي
درجة الحرارة 8°درجة مئوية
الرطوبة 93%
ضغط 1025 hPa
الرؤية: 4500 متر
غشاء,

METAR: SARE 160500Z 30002KT 4500 BR NSC 08/07 Q1025

زمن: 03:04 (06:04 UTC)

توقعات

تاريخ ووقت الإصدار 1ساعة و 4 دقيقة قبل الساعة 05:00UTC
التوقعات صالحة من16 الساعة 06 UTC إلى 17 الساعة 06 UTC
ريح 5 عقدة من الغرب/الجنوب الغربي
الرؤية: 4000 متر
غيوم قليلة على ارتفاع 2000 قدم
غيوم متفرقة على ارتفاع 3000 قدم
غشاء
أصبح
من 16 الساعة 13 UTC إلى 16 الساعة 14 UTC
ريح 2 عقدةمن اتجاهات متغيرة
الرؤية 10 كم أو أكثر
غيوم متفرقة على ارتفاع 2000 قدم

TAF: SARE 160500Z 1606/1706 24005KT 4000 BR FEW020 SCT030 TX21/1618Z TN08/1610Z BECMG 1613/1614 VRB02KT 9999 SCT020

أرصاد الطقس والتوقعات من أكثر من 4000 مطار (تقارير الطقس للمطار METAR والتنبؤ بالطقس بالمطارTAF).

المحطات المتاحة هي النقط الصفراء والحمراء على الخريطة.

حرك المؤشر فوق النقطة لمعرفة اسم المحطة.

ثم انقر لمعرفة أرصاد وتوقعات الطقس.

لتغيير الخارطة: اضغط على الأزرار الخضراء مع رمز الصليب الأسود للتكبير. على الزر الأخضر مع شرطة للتصغير، أو على الأسهم الخضراء للخرائط المجاورة.


METAR-TAF: